sensor_id;sensor_type;location;lat;lon;timestamp;P1;durP1;ratioP1;P2;durP2;ratioP2
870;SDS011;422;51.280;7.236;2023-04-22T00:01:02;9.37;;;7.97;;
870;SDS011;422;51.280;7.236;2023-04-22T00:03:31;8.80;;;7.33;;
870;SDS011;422;51.280;7.236;2023-04-22T00:05:59;9.77;;;8.73;;
870;SDS011;422;51.280;7.236;2023-04-22T00:08:26;8.60;;;7.07;;
870;SDS011;422;51.280;7.236;2023-04-22T00:10:53;10.90;;;7.70;;
870;SDS011;422;51.280;7.236;2023-04-22T00:13:20;9.40;;;7.70;;
870;SDS011;422;51.280;7.236;2023-04-22T00:15:48;10.60;;;7.87;;
870;SDS011;422;51.280;7.236;2023-04-22T00:18:15;7.90;;;7.07;;
870;SDS011;422;51.280;7.236;2023-04-22T00:20:43;7.53;;;6.83;;
870;SDS011;422;51.280;7.236;2023-04-22T00:23:11;10.17;;;8.33;;
870;SDS011;422;51.280;7.236;2023-04-22T00:25:38;9.03;;;8.10;;
870;SDS011;422;51.280;7.236;2023-04-22T00:28:06;7.77;;;6.93;;
870;SDS011;422;51.280;7.236;2023-04-22T00:30:33;8.20;;;7.17;;
870;SDS011;422;51.280;7.236;2023-04-22T00:33:01;8.07;;;6.73;;
870;SDS011;422;51.280;7.236;2023-04-22T00:35:28;8.20;;;7.40;;
870;SDS011;422;51.280;7.236;2023-04-22T00:37:57;8.43;;;7.53;;
870;SDS011;422;51.280;7.236;2023-04-22T00:40:24;10.67;;;7.33;;
870;SDS011;422;51.280;7.236;2023-04-22T00:42:51;10.57;;;8.70;;
870;SDS011;422;51.280;7.236;2023-04-22T00:45:20;10.27;;;8.40;;
870;SDS011;422;51.280;7.236;2023-04-22T00:47:47;12.40;;;8.17;;
870;SDS011;422;51.280;7.236;2023-04-22T00:50:14;12.77;;;8.40;;
870;SDS011;422;51.280;7.236;2023-04-22T00:52:42;11.63;;;8.30;;
870;SDS011;422;51.280;7.236;2023-04-22T00:55:11;9.00;;;8.10;;
870;SDS011;422;51.280;7.236;2023-04-22T00:57:38;9.50;;;8.10;;
870;SDS011;422;51.280;7.236;2023-04-22T01:00:06;9.60;;;8.60;;
870;SDS011;422;51.280;7.236;2023-04-22T01:02:35;9.50;;;7.93;;
870;SDS011;422;51.280;7.236;2023-04-22T01:05:02;10.37;;;8.50;;
870;SDS011;422;51.280;7.236;2023-04-22T01:07:31;8.23;;;7.03;;
870;SDS011;422;51.280;7.236;2023-04-22T01:09:59;10.30;;;8.40;;
870;SDS011;422;51.280;7.236;2023-04-22T01:12:29;9.20;;;7.63;;
870;SDS011;422;51.280;7.236;2023-04-22T01:14:56;9.07;;;7.80;;
870;SDS011;422;51.280;7.236;2023-04-22T01:17:23;10.00;;;7.33;;
870;SDS011;422;51.280;7.236;2023-04-22T01:19:50;8.27;;;7.40;;
870;SDS011;422;51.280;7.236;2023-04-22T01:22:19;8.40;;;7.13;;
870;SDS011;422;51.280;7.236;2023-04-22T01:24:49;8.47;;;6.93;;
870;SDS011;422;51.280;7.236;2023-04-22T01:27:16;7.77;;;6.97;;
870;SDS011;422;51.280;7.236;2023-04-22T01:29:44;8.07;;;7.27;;
870;SDS011;422;51.280;7.236;2023-04-22T01:32:13;7.70;;;6.90;;
870;SDS011;422;51.280;7.236;2023-04-22T01:34:40;8.80;;;6.83;;
870;SDS011;422;51.280;7.236;2023-04-22T01:37:07;8.03;;;7.23;;
870;SDS011;422;51.280;7.236;2023-04-22T01:39:34;7.73;;;6.30;;
870;SDS011;422;51.280;7.236;2023-04-22T01:42:04;7.50;;;6.13;;
870;SDS011;422;51.280;7.236;2023-04-22T01:44:31;10.57;;;7.10;;
870;SDS011;422;51.280;7.236;2023-04-22T01:46:58;7.30;;;6.60;;
870;SDS011;422;51.280;7.236;2023-04-22T01:49:26;7.00;;;6.30;;
870;SDS011;422;51.280;7.236;2023-04-22T01:51:53;6.17;;;5.60;;
870;SDS011;422;51.280;7.236;2023-04-22T01:54:20;8.83;;;6.43;;
870;SDS011;422;51.280;7.236;2023-04-22T01:56:51;6.43;;;5.83;;
870;SDS011;422;51.280;7.236;2023-04-22T01:59:20;6.50;;;5.73;;
870;SDS011;422;51.280;7.236;2023-04-22T02:01:47;6.20;;;5.57;;
870;SDS011;422;51.280;7.236;2023-04-22T02:04:14;6.93;;;5.73;;
870;SDS011;422;51.280;7.236;2023-04-22T02:06:41;6.80;;;6.00;;
870;SDS011;422;51.280;7.236;2023-04-22T02:09:09;7.40;;;6.67;;
870;SDS011;422;51.280;7.236;2023-04-22T02:11:36;7.47;;;6.67;;
870;SDS011;422;51.280;7.236;2023-04-22T02:14:03;7.40;;;6.57;;
870;SDS011;422;51.280;7.236;2023-04-22T02:16:32;7.03;;;5.97;;
870;SDS011;422;51.280;7.236;2023-04-22T02:18:59;7.63;;;6.87;;
870;SDS011;422;51.280;7.236;2023-04-22T02:21:27;5.83;;;5.33;;
870;SDS011;422;51.280;7.236;2023-04-22T02:23:56;6.33;;;5.67;;
870;SDS011;422;51.280;7.236;2023-04-22T02:26:23;8.00;;;6.60;;
870;SDS011;422;51.280;7.236;2023-04-22T02:28:50;7.50;;;6.77;;
870;SDS011;422;51.280;7.236;2023-04-22T02:31:17;7.30;;;6.60;;
870;SDS011;422;51.280;7.236;2023-04-22T02:33:46;7.53;;;6.73;;
870;SDS011;422;51.280;7.236;2023-04-22T02:36:13;5.87;;;5.30;;
870;SDS011;422;51.280;7.236;2023-04-22T02:38:40;8.77;;;6.33;;
870;SDS011;422;51.280;7.236;2023-04-22T02:41:08;7.30;;;6.50;;
870;SDS011;422;51.280;7.236;2023-04-22T02:43:35;6.63;;;5.93;;
870;SDS011;422;51.280;7.236;2023-04-22T02:46:02;9.10;;;6.53;;
870;SDS011;422;51.280;7.236;2023-04-22T02:48:29;7.67;;;6.47;;
870;SDS011;422;51.280;7.236;2023-04-22T02:50:58;7.97;;;6.57;;
870;SDS011;422;51.280;7.236;2023-04-22T02:53:25;6.70;;;6.00;;
870;SDS011;422;51.280;7.236;2023-04-22T02:55:52;6.23;;;5.63;;
870;SDS011;422;51.280;7.236;2023-04-22T02:58:21;7.00;;;6.30;;
870;SDS011;422;51.280;7.236;2023-04-22T03:00:48;7.80;;;6.13;;
870;SDS011;422;51.280;7.236;2023-04-22T03:03:15;8.70;;;6.53;;
870;SDS011;422;51.280;7.236;2023-04-22T03:05:42;8.40;;;6.27;;
870;SDS011;422;51.280;7.236;2023-04-22T03:08:11;7.40;;;6.60;;
870;SDS011;422;51.280;7.236;2023-04-22T03:10:38;7.10;;;6.40;;
870;SDS011;422;51.280;7.236;2023-04-22T03:13:06;7.20;;;6.50;;
870;SDS011;422;51.280;7.236;2023-04-22T03:15:33;7.40;;;6.67;;
870;SDS011;422;51.280;7.236;2023-04-22T03:18:00;7.37;;;6.60;;
870;SDS011;422;51.280;7.236;2023-04-22T03:20:27;6.50;;;5.80;;
870;SDS011;422;51.280;7.236;2023-04-22T03:22:55;7.33;;;6.43;;
870;SDS011;422;51.280;7.236;2023-04-22T03:25:23;8.60;;;7.20;;
870;SDS011;422;51.280;7.236;2023-04-22T03:27:50;8.10;;;6.37;;
870;SDS011;422;51.280;7.236;2023-04-22T03:30:17;8.10;;;6.77;;
870;SDS011;422;51.280;7.236;2023-04-22T03:32:45;8.00;;;6.60;;
870;SDS011;422;51.280;7.236;2023-04-22T03:35:12;7.43;;;6.73;;
870;SDS011;422;51.280;7.236;2023-04-22T03:37:39;7.20;;;6.50;;
870;SDS011;422;51.280;7.236;2023-04-22T03:40:07;7.90;;;6.20;;
870;SDS011;422;51.280;7.236;2023-04-22T03:42:37;7.00;;;6.30;;
870;SDS011;422;51.280;7.236;2023-04-22T03:45:04;7.77;;;6.53;;
870;SDS011;422;51.280;7.236;2023-04-22T03:47:32;7.20;;;6.50;;
870;SDS011;422;51.280;7.236;2023-04-22T03:50:00;6.97;;;6.27;;
870;SDS011;422;51.280;7.236;2023-04-22T03:52:27;7.30;;;5.63;;
870;SDS011;422;51.280;7.236;2023-04-22T03:54:54;6.50;;;5.90;;
870;SDS011;422;51.280;7.236;2023-04-22T03:57:21;8.17;;;7.27;;
870;SDS011;422;51.280;7.236;2023-04-22T03:59:50;7.63;;;5.97;;
870;SDS011;422;51.280;7.236;2023-04-22T04:02:17;7.33;;;6.33;;
870;SDS011;422;51.280;7.236;2023-04-22T04:04:44;7.70;;;7.00;;
870;SDS011;422;51.280;7.236;2023-04-22T04:07:12;9.00;;;7.00;;
870;SDS011;422;51.280;7.236;2023-04-22T04:09:39;7.37;;;6.20;;
870;SDS011;422;51.280;7.236;2023-04-22T04:12:07;7.73;;;6.80;;
870;SDS011;422;51.280;7.236;2023-04-22T04:14:34;7.57;;;6.20;;
870;SDS011;422;51.280;7.236;2023-04-22T04:17:02;8.30;;;7.40;;
870;SDS011;422;51.280;7.236;2023-04-22T04:19:33;8.53;;;6.80;;
870;SDS011;422;51.280;7.236;2023-04-22T04:22:01;7.13;;;6.30;;
870;SDS011;422;51.280;7.236;2023-04-22T04:24:28;7.10;;;6.40;;
870;SDS011;422;51.280;7.236;2023-04-22T04:26:55;6.97;;;6.27;;
870;SDS011;422;51.280;7.236;2023-04-22T04:29:22;6.97;;;6.10;;
870;SDS011;422;51.280;7.236;2023-04-22T04:31:51;7.50;;;6.70;;
870;SDS011;422;51.280;7.236;2023-04-22T04:34:19;7.87;;;7.07;;
870;SDS011;422;51.280;7.236;2023-04-22T04:36:47;8.60;;;6.20;;
870;SDS011;422;51.280;7.236;2023-04-22T04:39:14;6.97;;;5.73;;
870;SDS011;422;51.280;7.236;2023-04-22T04:41:45;7.00;;;6.00;;
870;SDS011;422;51.280;7.236;2023-04-22T04:44:14;6.97;;;6.27;;
870;SDS011;422;51.280;7.236;2023-04-22T04:46:41;6.00;;;5.40;;
870;SDS011;422;51.280;7.236;2023-04-22T04:49:08;7.50;;;6.30;;
870;SDS011;422;51.280;7.236;2023-04-22T04:51:38;7.13;;;6.03;;
870;SDS011;422;51.280;7.236;2023-04-22T04:54:05;7.27;;;6.33;;
870;SDS011;422;51.280;7.236;2023-04-22T04:56:32;7.10;;;5.90;;
870;SDS011;422;51.280;7.236;2023-04-22T04:58:59;6.97;;;6.27;;
870;SDS011;422;51.280;7.236;2023-04-22T05:01:26;6.53;;;5.83;;
870;SDS011;422;51.280;7.236;2023-04-22T05:03:54;8.20;;;6.07;;
870;SDS011;422;51.280;7.236;2023-04-22T05:06:21;7.07;;;5.33;;
870;SDS011;422;51.280;7.236;2023-04-22T05:08:50;5.83;;;5.23;;
870;SDS011;422;51.280;7.236;2023-04-22T05:11:17;6.40;;;5.70;;
870;SDS011;422;51.280;7.236;2023-04-22T05:13:44;5.27;;;4.70;;
870;SDS011;422;51.280;7.236;2023-04-22T05:16:11;4.47;;;4.03;;
870;SDS011;422;51.280;7.236;2023-04-22T05:18:38;6.07;;;5.33;;
870;SDS011;422;51.280;7.236;2023-04-22T05:21:06;5.80;;;4.80;;
870;SDS011;422;51.280;7.236;2023-04-22T05:23:33;4.83;;;4.43;;
870;SDS011;422;51.280;7.236;2023-04-22T05:26:02;5.40;;;4.90;;
870;SDS011;422;51.280;7.236;2023-04-22T05:28:29;5.27;;;4.77;;
870;SDS011;422;51.280;7.236;2023-04-22T05:30:56;5.67;;;5.10;;
870;SDS011;422;51.280;7.236;2023-04-22T05:33:24;6.87;;;5.00;;
870;SDS011;422;51.280;7.236;2023-04-22T05:35:51;5.97;;;4.77;;
870;SDS011;422;51.280;7.236;2023-04-22T05:38:18;4.70;;;4.20;;
870;SDS011;422;51.280;7.236;2023-04-22T05:40:45;4.80;;;4.20;;
870;SDS011;422;51.280;7.236;2023-04-22T05:43:16;5.53;;;4.70;;
870;SDS011;422;51.280;7.236;2023-04-22T05:45:43;5.43;;;4.90;;
870;SDS011;422;51.280;7.236;2023-04-22T05:48:10;5.37;;;4.70;;
870;SDS011;422;51.280;7.236;2023-04-22T05:50:37;4.53;;;4.10;;
870;SDS011;422;51.280;7.236;2023-04-22T05:53:04;7.57;;;5.47;;
870;SDS011;422;51.280;7.236;2023-04-22T05:55:32;5.20;;;4.57;;
870;SDS011;422;51.280;7.236;2023-04-22T05:58:01;4.87;;;4.37;;
870;SDS011;422;51.280;7.236;2023-04-22T06:00:30;5.70;;;4.40;;
870;SDS011;422;51.280;7.236;2023-04-22T06:02:57;4.60;;;3.80;;
870;SDS011;422;51.280;7.236;2023-04-22T06:05:25;5.60;;;4.50;;
870;SDS011;422;51.280;7.236;2023-04-22T06:07:52;5.40;;;4.90;;
870;SDS011;422;51.280;7.236;2023-04-22T06:10:19;4.80;;;3.90;;
870;SDS011;422;51.280;7.236;2023-04-22T06:12:46;5.90;;;4.40;;
870;SDS011;422;51.280;7.236;2023-04-22T06:15:14;5.27;;;4.30;;
870;SDS011;422;51.280;7.236;2023-04-22T06:17:42;5.03;;;4.53;;
870;SDS011;422;51.280;7.236;2023-04-22T06:20:10;4.67;;;4.17;;
870;SDS011;422;51.280;7.236;2023-04-22T06:22:37;5.53;;;4.53;;
870;SDS011;422;51.280;7.236;2023-04-22T06:25:05;4.70;;;4.30;;
870;SDS011;422;51.280;7.236;2023-04-22T06:27:33;4.73;;;4.33;;
870;SDS011;422;51.280;7.236;2023-04-22T06:30:00;4.50;;;4.00;;
870;SDS011;422;51.280;7.236;2023-04-22T06:32:27;5.30;;;4.67;;
870;SDS011;422;51.280;7.236;2023-04-22T06:34:56;4.63;;;4.23;;
870;SDS011;422;51.280;7.236;2023-04-22T06:37:23;5.53;;;4.63;;
870;SDS011;422;51.280;7.236;2023-04-22T06:39:51;5.83;;;4.10;;
870;SDS011;422;51.280;7.236;2023-04-22T06:42:18;4.40;;;3.40;;
870;SDS011;422;51.280;7.236;2023-04-22T06:44:45;4.40;;;4.00;;
870;SDS011;422;51.280;7.236;2023-04-22T06:47:12;4.93;;;3.87;;
870;SDS011;422;51.280;7.236;2023-04-22T06:49:40;5.33;;;4.10;;
870;SDS011;422;51.280;7.236;2023-04-22T06:52:10;4.87;;;3.80;;
870;SDS011;422;51.280;7.236;2023-04-22T06:54:37;4.30;;;3.70;;
870;SDS011;422;51.280;7.236;2023-04-22T06:57:05;3.80;;;3.43;;
870;SDS011;422;51.280;7.236;2023-04-22T06:59:33;5.03;;;3.53;;
870;SDS011;422;51.280;7.236;2023-04-22T07:02:00;3.70;;;3.40;;
870;SDS011;422;51.280;7.236;2023-04-22T07:04:27;4.73;;;3.40;;
870;SDS011;422;51.280;7.236;2023-04-22T07:06:55;4.87;;;3.70;;
870;SDS011;422;51.280;7.236;2023-04-22T07:09:25;3.80;;;3.50;;
870;SDS011;422;51.280;7.236;2023-04-22T07:11:53;3.67;;;3.27;;
870;SDS011;422;51.280;7.236;2023-04-22T07:14:24;4.83;;;3.40;;
870;SDS011;422;51.280;7.236;2023-04-22T07:16:51;3.70;;;3.17;;
870;SDS011;422;51.280;7.236;2023-04-22T07:19:19;4.33;;;3.57;;
870;SDS011;422;51.280;7.236;2023-04-22T07:21:46;4.13;;;3.73;;
870;SDS011;422;51.280;7.236;2023-04-22T07:24:14;3.90;;;3.40;;
870;SDS011;422;51.280;7.236;2023-04-22T07:26:42;3.60;;;3.30;;
870;SDS011;422;51.280;7.236;2023-04-22T07:29:10;6.83;;;3.40;;
870;SDS011;422;51.280;7.236;2023-04-22T07:31:38;5.13;;;3.83;;
870;SDS011;422;51.280;7.236;2023-04-22T07:34:05;4.77;;;3.53;;
870;SDS011;422;51.280;7.236;2023-04-22T07:36:34;5.00;;;3.67;;
870;SDS011;422;51.280;7.236;2023-04-22T07:39:02;3.53;;;3.23;;
870;SDS011;422;51.280;7.236;2023-04-22T07:41:29;4.00;;;3.60;;
870;SDS011;422;51.280;7.236;2023-04-22T07:43:58;4.13;;;3.30;;
870;SDS011;422;51.280;7.236;2023-04-22T07:46:25;6.13;;;3.33;;
870;SDS011;422;51.280;7.236;2023-04-22T07:48:53;3.90;;;3.50;;
870;SDS011;422;51.280;7.236;2023-04-22T07:51:20;4.13;;;3.73;;
870;SDS011;422;51.280;7.236;2023-04-22T07:53:47;3.77;;;3.37;;
870;SDS011;422;51.280;7.236;2023-04-22T07:56:14;4.10;;;3.17;;
870;SDS011;422;51.280;7.236;2023-04-22T07:58:42;4.70;;;3.20;;
870;SDS011;422;51.280;7.236;2023-04-22T08:01:10;10.83;;;7.80;;
870;SDS011;422;51.280;7.236;2023-04-22T08:03:37;4.00;;;3.70;;
870;SDS011;422;51.280;7.236;2023-04-22T08:06:05;3.60;;;3.30;;
870;SDS011;422;51.280;7.236;2023-04-22T08:08:32;4.20;;;3.80;;
870;SDS011;422;51.280;7.236;2023-04-22T08:10:59;3.53;;;3.00;;
870;SDS011;422;51.280;7.236;2023-04-22T08:13:27;3.70;;;2.97;;
870;SDS011;422;51.280;7.236;2023-04-22T08:15:54;4.23;;;3.73;;
870;SDS011;422;51.280;7.236;2023-04-22T08:18:22;3.30;;;3.00;;
870;SDS011;422;51.280;7.236;2023-04-22T08:20:50;3.50;;;3.20;;
870;SDS011;422;51.280;7.236;2023-04-22T08:23:17;3.27;;;2.97;;
870;SDS011;422;51.280;7.236;2023-04-22T08:25:45;3.50;;;2.93;;
870;SDS011;422;51.280;7.236;2023-04-22T08:28:12;4.07;;;3.50;;
870;SDS011;422;51.280;7.236;2023-04-22T08:30:40;3.03;;;2.83;;
870;SDS011;422;51.280;7.236;2023-04-22T08:33:07;4.07;;;3.57;;
870;SDS011;422;51.280;7.236;2023-04-22T08:35:36;3.33;;;3.03;;
870;SDS011;422;51.280;7.236;2023-04-22T08:38:03;3.90;;;3.20;;
870;SDS011;422;51.280;7.236;2023-04-22T08:40:31;3.63;;;3.33;;
870;SDS011;422;51.280;7.236;2023-04-22T08:42:59;5.20;;;3.33;;
870;SDS011;422;51.280;7.236;2023-04-22T08:45:26;4.97;;;3.43;;
870;SDS011;422;51.280;7.236;2023-04-22T08:47:55;3.17;;;2.87;;
870;SDS011;422;51.280;7.236;2023-04-22T08:50:23;7.07;;;2.87;;
870;SDS011;422;51.280;7.236;2023-04-22T08:52:51;3.80;;;3.40;;
870;SDS011;422;51.280;7.236;2023-04-22T08:55:19;4.47;;;3.43;;
870;SDS011;422;51.280;7.236;2023-04-22T08:57:46;3.00;;;2.70;;
870;SDS011;422;51.280;7.236;2023-04-22T09:00:14;4.07;;;3.30;;
870;SDS011;422;51.280;7.236;2023-04-22T09:02:43;3.03;;;2.73;;
870;SDS011;422;51.280;7.236;2023-04-22T09:05:11;3.60;;;3.30;;
870;SDS011;422;51.280;7.236;2023-04-22T09:07:40;3.40;;;3.10;;
870;SDS011;422;51.280;7.236;2023-04-22T09:10:09;5.30;;;3.57;;
870;SDS011;422;51.280;7.236;2023-04-22T09:12:37;3.90;;;3.60;;
870;SDS011;422;51.280;7.236;2023-04-22T09:15:06;4.60;;;3.30;;
870;SDS011;422;51.280;7.236;2023-04-22T09:17:34;3.30;;;3.00;;
870;SDS011;422;51.280;7.236;2023-04-22T09:20:04;4.17;;;3.20;;
870;SDS011;422;51.280;7.236;2023-04-22T09:22:36;3.70;;;2.60;;
870;SDS011;422;51.280;7.236;2023-04-22T09:25:05;3.17;;;2.97;;
870;SDS011;422;51.280;7.236;2023-04-22T09:27:40;3.17;;;2.87;;
870;SDS011;422;51.280;7.236;2023-04-22T09:30:08;3.70;;;3.40;;
870;SDS011;422;51.280;7.236;2023-04-22T09:32:38;3.27;;;2.97;;
870;SDS011;422;51.280;7.236;2023-04-22T09:35:05;2.93;;;2.73;;
870;SDS011;422;51.280;7.236;2023-04-22T09:37:33;3.87;;;2.73;;
870;SDS011;422;51.280;7.236;2023-04-22T09:40:00;3.40;;;3.10;;
870;SDS011;422;51.280;7.236;2023-04-22T09:42:29;3.83;;;3.03;;
870;SDS011;422;51.280;7.236;2023-04-22T09:44:57;3.00;;;2.70;;
870;SDS011;422;51.280;7.236;2023-04-22T09:47:24;3.30;;;3.00;;
870;SDS011;422;51.280;7.236;2023-04-22T09:50:02;3.30;;;3.00;;
870;SDS011;422;51.280;7.236;2023-04-22T09:52:30;5.03;;;3.27;;
870;SDS011;422;51.280;7.236;2023-04-22T09:54:58;5.63;;;3.67;;
870;SDS011;422;51.280;7.236;2023-04-22T09:57:25;3.67;;;3.37;;
870;SDS011;422;51.280;7.236;2023-04-22T09:59:54;3.20;;;3.00;;
870;SDS011;422;51.280;7.236;2023-04-22T10:02:27;3.40;;;3.10;;
870;SDS011;422;51.280;7.236;2023-04-22T10:04:55;3.33;;;3.03;;
870;SDS011;422;51.280;7.236;2023-04-22T10:07:23;3.73;;;3.10;;
870;SDS011;422;51.280;7.236;2023-04-22T10:09:55;3.20;;;2.90;;
870;SDS011;422;51.280;7.236;2023-04-22T10:12:22;5.57;;;3.20;;
870;SDS011;422;51.280;7.236;2023-04-22T10:14:51;3.30;;;3.00;;
870;SDS011;422;51.280;7.236;2023-04-22T10:17:20;4.63;;;3.00;;
870;SDS011;422;51.280;7.236;2023-04-22T10:19:47;17.07;;;5.13;;
870;SDS011;422;51.280;7.236;2023-04-22T10:22:15;12.43;;;4.20;;
870;SDS011;422;51.280;7.236;2023-04-22T10:24:43;5.07;;;3.20;;
870;SDS011;422;51.280;7.236;2023-04-22T10:27:15;4.33;;;3.33;;
870;SDS011;422;51.280;7.236;2023-04-22T10:29:46;5.00;;;3.23;;
870;SDS011;422;51.280;7.236;2023-04-22T10:32:24;2.73;;;2.47;;
870;SDS011;422;51.280;7.236;2023-04-22T10:35:12;3.33;;;3.03;;
870;SDS011;422;51.280;7.236;2023-04-22T10:37:40;4.07;;;3.10;;
870;SDS011;422;51.280;7.236;2023-04-22T10:40:11;3.93;;;3.53;;
870;SDS011;422;51.280;7.236;2023-04-22T10:42:41;2.73;;;2.53;;
870;SDS011;422;51.280;7.236;2023-04-22T10:45:12;3.13;;;2.93;;
870;SDS011;422;51.280;7.236;2023-04-22T10:47:42;3.27;;;2.97;;
870;SDS011;422;51.280;7.236;2023-04-22T10:50:11;3.83;;;3.07;;
870;SDS011;422;51.280;7.236;2023-04-22T10:52:44;3.70;;;3.30;;
870;SDS011;422;51.280;7.236;2023-04-22T10:55:14;3.37;;;3.07;;
870;SDS011;422;51.280;7.236;2023-04-22T10:57:42;5.23;;;3.40;;
870;SDS011;422;51.280;7.236;2023-04-22T11:03:08;3.93;;;3.53;;
870;SDS011;422;51.280;7.236;2023-04-22T11:05:40;4.40;;;3.50;;
870;SDS011;422;51.280;7.236;2023-04-22T11:08:11;4.80;;;3.40;;
870;SDS011;422;51.280;7.236;2023-04-22T11:10:41;4.10;;;2.90;;
870;SDS011;422;51.280;7.236;2023-04-22T11:13:10;3.53;;;3.23;;
870;SDS011;422;51.280;7.236;2023-04-22T11:15:40;3.70;;;3.40;;
870;SDS011;422;51.280;7.236;2023-04-22T11:18:11;3.80;;;3.40;;
870;SDS011;422;51.280;7.236;2023-04-22T11:20:40;4.53;;;3.47;;
870;SDS011;422;51.280;7.236;2023-04-22T11:23:07;3.70;;;3.40;;
870;SDS011;422;51.280;7.236;2023-04-22T11:25:35;6.20;;;3.90;;
870;SDS011;422;51.280;7.236;2023-04-22T11:28:02;3.17;;;2.73;;
870;SDS011;422;51.280;7.236;2023-04-22T11:30:29;5.83;;;3.37;;
870;SDS011;422;51.280;7.236;2023-04-22T11:32:58;6.17;;;4.20;;
870;SDS011;422;51.280;7.236;2023-04-22T11:35:28;3.70;;;3.40;;
870;SDS011;422;51.280;7.236;2023-04-22T11:38:00;5.90;;;4.33;;
870;SDS011;422;51.280;7.236;2023-04-22T11:40:33;3.50;;;3.20;;
870;SDS011;422;51.280;7.236;2023-04-22T11:43:01;4.87;;;4.00;;
870;SDS011;422;51.280;7.236;2023-04-22T11:45:30;3.47;;;2.80;;
870;SDS011;422;51.280;7.236;2023-04-22T11:47:59;4.17;;;3.87;;
870;SDS011;422;51.280;7.236;2023-04-22T11:50:29;4.33;;;3.70;;
870;SDS011;422;51.280;7.236;2023-04-22T11:52:59;3.70;;;3.40;;
870;SDS011;422;51.280;7.236;2023-04-22T11:55:28;3.90;;;3.60;;
870;SDS011;422;51.280;7.236;2023-04-22T11:57:57;4.73;;;4.33;;
870;SDS011;422;51.280;7.236;2023-04-22T12:00:28;3.93;;;3.30;;
870;SDS011;422;51.280;7.236;2023-04-22T12:02:57;3.97;;;3.57;;
870;SDS011;422;51.280;7.236;2023-04-22T12:05:38;4.63;;;4.10;;
870;SDS011;422;51.280;7.236;2023-04-22T12:08:06;5.03;;;3.90;;
870;SDS011;422;51.280;7.236;2023-04-22T12:10:38;4.30;;;3.90;;
870;SDS011;422;51.280;7.236;2023-04-22T12:13:07;4.30;;;3.90;;
870;SDS011;422;51.280;7.236;2023-04-22T12:15:38;3.80;;;3.50;;
870;SDS011;422;51.280;7.236;2023-04-22T12:18:07;4.27;;;3.60;;
870;SDS011;422;51.280;7.236;2023-04-22T12:20:36;4.13;;;3.70;;
870;SDS011;422;51.280;7.236;2023-04-22T12:23:10;4.00;;;3.60;;
870;SDS011;422;51.280;7.236;2023-04-22T12:25:39;5.73;;;3.70;;
870;SDS011;422;51.280;7.236;2023-04-22T12:28:07;4.73;;;4.33;;
870;SDS011;422;51.280;7.236;2023-04-22T12:30:35;4.00;;;3.60;;
870;SDS011;422;51.280;7.236;2023-04-22T12:33:02;4.07;;;3.60;;
870;SDS011;422;51.280;7.236;2023-04-22T12:35:30;3.67;;;3.37;;
870;SDS011;422;51.280;7.236;2023-04-22T12:37:59;3.73;;;3.43;;
870;SDS011;422;51.280;7.236;2023-04-22T12:40:26;4.63;;;4.23;;
870;SDS011;422;51.280;7.236;2023-04-22T12:42:54;4.10;;;3.80;;
870;SDS011;422;51.280;7.236;2023-04-22T12:45:21;6.30;;;4.03;;
870;SDS011;422;51.280;7.236;2023-04-22T12:47:49;5.67;;;4.40;;
870;SDS011;422;51.280;7.236;2023-04-22T12:50:17;3.90;;;3.60;;
870;SDS011;422;51.280;7.236;2023-04-22T12:52:45;4.00;;;3.37;;
870;SDS011;422;51.280;7.236;2023-04-22T12:55:14;5.10;;;3.83;;
870;SDS011;422;51.280;7.236;2023-04-22T12:57:42;5.40;;;3.63;;
870;SDS011;422;51.280;7.236;2023-04-22T13:00:10;4.47;;;4.07;;
870;SDS011;422;51.280;7.236;2023-04-22T13:02:39;6.27;;;4.63;;
870;SDS011;422;51.280;7.236;2023-04-22T13:05:10;4.40;;;3.80;;
870;SDS011;422;51.280;7.236;2023-04-22T13:07:37;5.23;;;3.70;;
870;SDS011;422;51.280;7.236;2023-04-22T13:10:06;4.63;;;3.83;;
870;SDS011;422;51.280;7.236;2023-04-22T13:12:36;6.17;;;3.97;;
870;SDS011;422;51.280;7.236;2023-04-22T13:15:04;4.20;;;3.77;;
870;SDS011;422;51.280;7.236;2023-04-22T13:17:33;5.57;;;4.40;;
870;SDS011;422;51.280;7.236;2023-04-22T13:20:00;4.10;;;3.73;;
870;SDS011;422;51.280;7.236;2023-04-22T13:22:29;4.00;;;3.60;;
870;SDS011;422;51.280;7.236;2023-04-22T13:24:56;4.90;;;3.60;;
870;SDS011;422;51.280;7.236;2023-04-22T13:27:23;3.93;;;3.63;;
870;SDS011;422;51.280;7.236;2023-04-22T13:29:52;4.10;;;3.80;;
870;SDS011;422;51.280;7.236;2023-04-22T13:32:19;4.00;;;3.70;;
870;SDS011;422;51.280;7.236;2023-04-22T13:34:46;4.47;;;4.03;;
870;SDS011;422;51.280;7.236;2023-04-22T13:37:14;3.80;;;3.50;;
870;SDS011;422;51.280;7.236;2023-04-22T13:39:43;3.87;;;3.53;;
870;SDS011;422;51.280;7.236;2023-04-22T13:42:10;4.63;;;3.10;;
870;SDS011;422;51.280;7.236;2023-04-22T13:44:37;4.20;;;3.80;;
870;SDS011;422;51.280;7.236;2023-04-22T13:47:06;3.97;;;3.53;;
870;SDS011;422;51.280;7.236;2023-04-22T13:49:33;3.60;;;3.30;;
870;SDS011;422;51.280;7.236;2023-04-22T13:52:00;4.50;;;4.10;;
870;SDS011;422;51.280;7.236;2023-04-22T13:54:28;7.00;;;3.90;;
870;SDS011;422;51.280;7.236;2023-04-22T13:56:55;4.90;;;3.83;;
870;SDS011;422;51.280;7.236;2023-04-22T13:59:23;5.70;;;4.43;;
870;SDS011;422;51.280;7.236;2023-04-22T14:01:50;7.57;;;4.40;;
870;SDS011;422;51.280;7.236;2023-04-22T14:04:19;7.10;;;4.40;;
870;SDS011;422;51.280;7.236;2023-04-22T14:06:46;5.43;;;4.80;;
870;SDS011;422;51.280;7.236;2023-04-22T14:09:13;5.77;;;4.43;;
870;SDS011;422;51.280;7.236;2023-04-22T14:11:42;7.43;;;5.20;;
870;SDS011;422;51.280;7.236;2023-04-22T14:14:09;5.70;;;5.13;;
870;SDS011;422;51.280;7.236;2023-04-22T14:16:36;4.83;;;4.43;;
870;SDS011;422;51.280;7.236;2023-04-22T14:19:03;5.40;;;4.90;;
870;SDS011;422;51.280;7.236;2023-04-22T14:21:34;6.97;;;5.13;;
870;SDS011;422;51.280;7.236;2023-04-22T14:24:01;5.13;;;4.40;;
870;SDS011;422;51.280;7.236;2023-04-22T14:26:28;5.33;;;4.80;;
870;SDS011;422;51.280;7.236;2023-04-22T14:28:57;4.97;;;4.57;;
870;SDS011;422;51.280;7.236;2023-04-22T14:31:24;7.43;;;4.63;;
870;SDS011;422;51.280;7.236;2023-04-22T14:33:52;6.37;;;5.73;;
870;SDS011;422;51.280;7.236;2023-04-22T14:36:19;6.67;;;5.90;;
870;SDS011;422;51.280;7.236;2023-04-22T14:38:48;14.30;;;6.70;;
870;SDS011;422;51.280;7.236;2023-04-22T14:41:15;6.20;;;5.60;;
870;SDS011;422;51.280;7.236;2023-04-22T14:43:42;6.97;;;5.27;;
870;SDS011;422;51.280;7.236;2023-04-22T14:46:11;6.73;;;5.57;;
870;SDS011;422;51.280;7.236;2023-04-22T14:48:38;5.50;;;4.80;;
870;SDS011;422;51.280;7.236;2023-04-22T14:51:05;6.93;;;6.23;;
870;SDS011;422;51.280;7.236;2023-04-22T14:53:32;7.30;;;5.00;;
870;SDS011;422;51.280;7.236;2023-04-22T14:56:01;6.87;;;6.00;;
870;SDS011;422;51.280;7.236;2023-04-22T14:58:28;6.27;;;5.43;;
870;SDS011;422;51.280;7.236;2023-04-22T15:00:56;5.60;;;4.90;;
870;SDS011;422;51.280;7.236;2023-04-22T15:03:24;11.90;;;7.90;;
870;SDS011;422;51.280;7.236;2023-04-22T15:05:51;11.93;;;6.10;;
870;SDS011;422;51.280;7.236;2023-04-22T15:08:19;6.80;;;5.37;;
870;SDS011;422;51.280;7.236;2023-04-22T15:10:49;5.63;;;5.13;;
870;SDS011;422;51.280;7.236;2023-04-22T15:13:18;6.83;;;5.73;;
870;SDS011;422;51.280;7.236;2023-04-22T15:15:45;5.87;;;5.00;;
870;SDS011;422;51.280;7.236;2023-04-22T15:18:12;5.37;;;4.97;;
870;SDS011;422;51.280;7.236;2023-04-22T15:20:40;5.83;;;5.33;;
870;SDS011;422;51.280;7.236;2023-04-22T15:23:07;6.83;;;4.50;;
870;SDS011;422;51.280;7.236;2023-04-22T15:25:35;5.30;;;4.80;;
870;SDS011;422;51.280;7.236;2023-04-22T15:28:02;5.83;;;5.33;;
870;SDS011;422;51.280;7.236;2023-04-22T15:30:31;5.50;;;4.70;;
870;SDS011;422;51.280;7.236;2023-04-22T15:32:58;4.70;;;4.20;;
870;SDS011;422;51.280;7.236;2023-04-22T15:35:26;5.03;;;4.37;;
870;SDS011;422;51.280;7.236;2023-04-22T15:37:53;7.37;;;5.63;;
870;SDS011;422;51.280;7.236;2023-04-22T15:40:21;5.30;;;4.80;;
870;SDS011;422;51.280;7.236;2023-04-22T15:42:48;5.20;;;4.70;;
870;SDS011;422;51.280;7.236;2023-04-22T15:45:16;5.80;;;4.80;;
870;SDS011;422;51.280;7.236;2023-04-22T15:47:44;4.87;;;4.37;;
870;SDS011;422;51.280;7.236;2023-04-22T15:50:12;5.80;;;5.30;;
870;SDS011;422;51.280;7.236;2023-04-22T15:52:39;4.93;;;4.00;;